sensor_id;sensor_type;location;lat;lon;timestamp;temperature;humidity
20512;DHT22;10414;52.074;5.126;2023-04-19T00:01:29;10.10;99.90
20512;DHT22;10414;52.074;5.126;2023-04-19T00:03:57;10.10;99.90
20512;DHT22;10414;52.074;5.126;2023-04-19T00:06:24;10.30;99.90
20512;DHT22;10414;52.074;5.126;2023-04-19T00:08:55;10.30;99.90
20512;DHT22;10414;52.074;5.126;2023-04-19T00:11:22;10.20;99.90
20512;DHT22;10414;52.074;5.126;2023-04-19T00:13:48;10.20;99.90
20512;DHT22;10414;52.074;5.126;2023-04-19T00:16:15;10.30;99.90
20512;DHT22;10414;52.074;5.126;2023-04-19T00:18:44;10.30;99.90
20512;DHT22;10414;52.074;5.126;2023-04-19T00:21:13;10.30;99.90
20512;DHT22;10414;52.074;5.126;2023-04-19T00:23:39;10.30;99.90
20512;DHT22;10414;52.074;5.126;2023-04-19T00:26:06;10.30;99.90
20512;DHT22;10414;52.074;5.126;2023-04-19T00:28:33;10.20;99.90
20512;DHT22;10414;52.074;5.126;2023-04-19T00:34:42;10.20;99.90
20512;DHT22;10414;52.074;5.126;2023-04-19T00:37:09;10.20;99.90
20512;DHT22;10414;52.074;5.126;2023-04-19T00:39:36;10.30;99.90
20512;DHT22;10414;52.074;5.126;2023-04-19T00:42:03;10.40;99.90
20512;DHT22;10414;52.074;5.126;2023-04-19T00:44:30;10.30;99.90
20512;DHT22;10414;52.074;5.126;2023-04-19T00:46:57;10.20;99.90
20512;DHT22;10414;52.074;5.126;2023-04-19T00:49:26;10.30;99.90
20512;DHT22;10414;52.074;5.126;2023-04-19T00:51:54;10.30;99.90
20512;DHT22;10414;52.074;5.126;2023-04-19T00:54:21;10.10;99.90
20512;DHT22;10414;52.074;5.126;2023-04-19T00:56:49;10.10;99.90
20512;DHT22;10414;52.074;5.126;2023-04-19T00:59:16;10.00;99.90
20512;DHT22;10414;52.074;5.126;2023-04-19T01:01:44;9.90;99.90
20512;DHT22;10414;52.074;5.126;2023-04-19T01:04:11;9.80;99.90
20512;DHT22;10414;52.074;5.126;2023-04-19T01:06:39;9.80;99.90
20512;DHT22;10414;52.074;5.126;2023-04-19T01:09:08;9.70;99.90
20512;DHT22;10414;52.074;5.126;2023-04-19T01:11:35;9.70;99.90
20512;DHT22;10414;52.074;5.126;2023-04-19T01:14:02;9.50;99.90
20512;DHT22;10414;52.074;5.126;2023-04-19T01:16:29;9.50;99.90
20512;DHT22;10414;52.074;5.126;2023-04-19T01:18:58;9.40;99.90
20512;DHT22;10414;52.074;5.126;2023-04-19T01:21:25;9.40;99.90
20512;DHT22;10414;52.074;5.126;2023-04-19T01:23:55;9.40;99.90
20512;DHT22;10414;52.074;5.126;2023-04-19T01:26:22;9.40;99.90
20512;DHT22;10414;52.074;5.126;2023-04-19T01:28:48;9.40;99.90
20512;DHT22;10414;52.074;5.126;2023-04-19T01:31:15;9.30;99.90
20512;DHT22;10414;52.074;5.126;2023-04-19T01:33:42;9.30;99.90
20512;DHT22;10414;52.074;5.126;2023-04-19T01:36:09;9.30;99.90
20512;DHT22;10414;52.074;5.126;2023-04-19T01:38:36;9.40;99.90
20512;DHT22;10414;52.074;5.126;2023-04-19T01:41:04;9.60;99.90
20512;DHT22;10414;52.074;5.126;2023-04-19T01:43:32;9.60;99.90
20512;DHT22;10414;52.074;5.126;2023-04-19T01:45:59;9.50;99.90
20512;DHT22;10414;52.074;5.126;2023-04-19T01:48:26;9.40;99.90
20512;DHT22;10414;52.074;5.126;2023-04-19T01:50:52;9.40;99.90
20512;DHT22;10414;52.074;5.126;2023-04-19T01:53:19;9.30;99.90
20512;DHT22;10414;52.074;5.126;2023-04-19T01:55:46;9.20;99.90
20512;DHT22;10414;52.074;5.126;2023-04-19T01:58:14;9.40;99.90
20512;DHT22;10414;52.074;5.126;2023-04-19T02:00:41;9.60;99.90
20512;DHT22;10414;52.074;5.126;2023-04-19T02:03:08;9.60;99.90
20512;DHT22;10414;52.074;5.126;2023-04-19T02:05:35;9.40;99.90
20512;DHT22;10414;52.074;5.126;2023-04-19T02:08:04;9.40;99.90
20512;DHT22;10414;52.074;5.126;2023-04-19T02:10:31;9.50;99.90
20512;DHT22;10414;52.074;5.126;2023-04-19T02:12:57;9.60;99.90
20512;DHT22;10414;52.074;5.126;2023-04-19T02:15:26;9.70;99.90
20512;DHT22;10414;52.074;5.126;2023-04-19T02:17:52;9.70;99.90
20512;DHT22;10414;52.074;5.126;2023-04-19T02:20:19;9.70;99.90
20512;DHT22;10414;52.074;5.126;2023-04-19T02:22:46;9.70;99.90
20512;DHT22;10414;52.074;5.126;2023-04-19T02:25:13;9.80;99.90
20512;DHT22;10414;52.074;5.126;2023-04-19T02:27:41;9.80;99.90
20512;DHT22;10414;52.074;5.126;2023-04-19T02:30:08;9.90;99.90
20512;DHT22;10414;52.074;5.126;2023-04-19T02:32:37;9.90;99.90
20512;DHT22;10414;52.074;5.126;2023-04-19T02:35:04;9.70;99.90
20512;DHT22;10414;52.074;5.126;2023-04-19T02:37:31;9.70;99.90
20512;DHT22;10414;52.074;5.126;2023-04-19T02:39:58;9.90;99.90
20512;DHT22;10414;52.074;5.126;2023-04-19T02:42:24;9.90;99.90
20512;DHT22;10414;52.074;5.126;2023-04-19T02:44:51;9.90;99.90
20512;DHT22;10414;52.074;5.126;2023-04-19T02:47:18;9.90;99.90
20512;DHT22;10414;52.074;5.126;2023-04-19T02:49:47;9.90;99.90
20512;DHT22;10414;52.074;5.126;2023-04-19T02:52:13;9.90;99.90
20512;DHT22;10414;52.074;5.126;2023-04-19T02:54:40;9.90;99.90
20512;DHT22;10414;52.074;5.126;2023-04-19T02:57:07;9.80;99.90
20512;DHT22;10414;52.074;5.126;2023-04-19T02:59:34;9.80;99.90
20512;DHT22;10414;52.074;5.126;2023-04-19T03:02:01;9.90;99.90
20512;DHT22;10414;52.074;5.126;2023-04-19T03:04:28;9.80;99.90
20512;DHT22;10414;52.074;5.126;2023-04-19T03:06:57;9.80;99.90
20512;DHT22;10414;52.074;5.126;2023-04-19T03:09:24;9.90;99.90
20512;DHT22;10414;52.074;5.126;2023-04-19T03:11:50;10.00;99.90
20512;DHT22;10414;52.074;5.126;2023-04-19T03:14:17;9.90;99.90
20512;DHT22;10414;52.074;5.126;2023-04-19T03:16:44;9.90;99.90
20512;DHT22;10414;52.074;5.126;2023-04-19T03:19:11;9.90;99.90
20512;DHT22;10414;52.074;5.126;2023-04-19T03:21:38;10.00;99.90
20512;DHT22;10414;52.074;5.126;2023-04-19T03:24:07;10.10;99.90
20512;DHT22;10414;52.074;5.126;2023-04-19T03:26:34;10.10;99.90
20512;DHT22;10414;52.074;5.126;2023-04-19T03:29:01;10.00;99.90
20512;DHT22;10414;52.074;5.126;2023-04-19T03:31:27;10.00;99.90
20512;DHT22;10414;52.074;5.126;2023-04-19T03:33:54;10.10;99.90
20512;DHT22;10414;52.074;5.126;2023-04-19T03:36:21;10.10;99.90
20512;DHT22;10414;52.074;5.126;2023-04-19T03:38:48;10.10;99.90
20512;DHT22;10414;52.074;5.126;2023-04-19T03:41:20;10.20;99.90
20512;DHT22;10414;52.074;5.126;2023-04-19T03:43:47;10.20;99.90
20512;DHT22;10414;52.074;5.126;2023-04-19T03:46:13;10.30;99.90
20512;DHT22;10414;52.074;5.126;2023-04-19T03:48:40;10.20;99.90
20512;DHT22;10414;52.074;5.126;2023-04-19T03:51:07;10.20;99.90
20512;DHT22;10414;52.074;5.126;2023-04-19T03:53:34;10.10;99.90
20512;DHT22;10414;52.074;5.126;2023-04-19T03:56:01;10.20;99.90
20512;DHT22;10414;52.074;5.126;2023-04-19T03:58:30;10.10;99.90
20512;DHT22;10414;52.074;5.126;2023-04-19T04:00:57;10.10;99.90
20512;DHT22;10414;52.074;5.126;2023-04-19T04:03:24;10.00;99.90
20512;DHT22;10414;52.074;5.126;2023-04-19T04:05:51;10.10;99.90
20512;DHT22;10414;52.074;5.126;2023-04-19T04:08:18;10.20;99.90
20512;DHT22;10414;52.074;5.126;2023-04-19T04:10:44;10.20;99.90
20512;DHT22;10414;52.074;5.126;2023-04-19T04:13:11;10.10;99.90
20512;DHT22;10414;52.074;5.126;2023-04-19T04:15:39;10.10;99.90
20512;DHT22;10414;52.074;5.126;2023-04-19T04:18:06;10.20;99.90
20512;DHT22;10414;52.074;5.126;2023-04-19T04:20:33;10.10;99.90
20512;DHT22;10414;52.074;5.126;2023-04-19T04:23:01;10.00;99.90
20512;DHT22;10414;52.074;5.126;2023-04-19T04:25:28;9.90;99.90
20512;DHT22;10414;52.074;5.126;2023-04-19T04:27:57;9.90;99.90
20512;DHT22;10414;52.074;5.126;2023-04-19T04:30:24;10.00;99.90
20512;DHT22;10414;52.074;5.126;2023-04-19T04:32:54;10.00;99.90
20512;DHT22;10414;52.074;5.126;2023-04-19T04:35:22;9.90;99.90
20512;DHT22;10414;52.074;5.126;2023-04-19T04:37:49;9.90;99.90
20512;DHT22;10414;52.074;5.126;2023-04-19T04:40:18;9.70;99.90
20512;DHT22;10414;52.074;5.126;2023-04-19T04:42:45;9.80;99.90
20512;DHT22;10414;52.074;5.126;2023-04-19T04:45:12;9.70;99.90
20512;DHT22;10414;52.074;5.126;2023-04-19T04:47:42;9.80;99.90
20512;DHT22;10414;52.074;5.126;2023-04-19T04:50:12;9.80;99.90
20512;DHT22;10414;52.074;5.126;2023-04-19T04:52:38;9.70;99.90
20512;DHT22;10414;52.074;5.126;2023-04-19T04:55:06;9.80;99.90
20512;DHT22;10414;52.074;5.126;2023-04-19T04:57:33;9.70;99.90
20512;DHT22;10414;52.074;5.126;2023-04-19T05:00:00;9.70;99.90
20512;DHT22;10414;52.074;5.126;2023-04-19T05:02:27;9.60;99.90
20512;DHT22;10414;52.074;5.126;2023-04-19T05:04:54;9.60;99.90
20512;DHT22;10414;52.074;5.126;2023-04-19T05:07:22;9.70;99.90
20512;DHT22;10414;52.074;5.126;2023-04-19T05:09:49;9.80;99.90
20512;DHT22;10414;52.074;5.126;2023-04-19T05:12:16;9.80;99.90
20512;DHT22;10414;52.074;5.126;2023-04-19T05:14:42;9.70;99.90
20512;DHT22;10414;52.074;5.126;2023-04-19T05:17:09;9.70;99.90
20512;DHT22;10414;52.074;5.126;2023-04-19T05:19:36;9.70;99.90
20512;DHT22;10414;52.074;5.126;2023-04-19T05:22:03;9.60;99.90
20512;DHT22;10414;52.074;5.126;2023-04-19T05:24:31;9.70;99.90
20512;DHT22;10414;52.074;5.126;2023-04-19T05:26:58;9.80;99.90
20512;DHT22;10414;52.074;5.126;2023-04-19T05:29:26;10.20;99.90
20512;DHT22;10414;52.074;5.126;2023-04-19T05:31:53;10.80;99.90
20512;DHT22;10414;52.074;5.126;2023-04-19T05:34:19;11.60;99.90
20512;DHT22;10414;52.074;5.126;2023-04-19T05:36:46;12.00;99.90
20512;DHT22;10414;52.074;5.126;2023-04-19T05:39:13;12.10;99.90
20512;DHT22;10414;52.074;5.126;2023-04-19T05:41:41;12.40;99.90
20512;DHT22;10414;52.074;5.126;2023-04-19T05:44:08;12.50;99.90
20512;DHT22;10414;52.074;5.126;2023-04-19T05:46:35;12.40;99.90
20512;DHT22;10414;52.074;5.126;2023-04-19T05:49:02;12.70;99.90
20512;DHT22;10414;52.074;5.126;2023-04-19T05:51:28;13.20;99.90
20512;DHT22;10414;52.074;5.126;2023-04-19T05:53:56;13.40;99.90
20512;DHT22;10414;52.074;5.126;2023-04-19T05:56:23;13.30;99.90
20512;DHT22;10414;52.074;5.126;2023-04-19T05:58:51;13.70;99.90
20512;DHT22;10414;52.074;5.126;2023-04-19T06:01:20;14.20;99.90
20512;DHT22;10414;52.074;5.126;2023-04-19T06:03:46;14.60;99.90
20512;DHT22;10414;52.074;5.126;2023-04-19T06:06:17;15.00;99.90
20512;DHT22;10414;52.074;5.126;2023-04-19T06:08:44;15.10;99.90
20512;DHT22;10414;52.074;5.126;2023-04-19T06:11:11;16.00;99.90
20512;DHT22;10414;52.074;5.126;2023-04-19T06:13:38;15.00;99.90
20512;DHT22;10414;52.074;5.126;2023-04-19T06:16:07;15.30;99.90
20512;DHT22;10414;52.074;5.126;2023-04-19T06:18:34;15.80;99.90
20512;DHT22;10414;52.074;5.126;2023-04-19T06:21:01;15.20;99.90
20512;DHT22;10414;52.074;5.126;2023-04-19T06:23:27;14.80;99.90
20512;DHT22;10414;52.074;5.126;2023-04-19T06:25:54;14.70;99.90
20512;DHT22;10414;52.074;5.126;2023-04-19T06:28:21;14.30;99.90
20512;DHT22;10414;52.074;5.126;2023-04-19T06:30:48;15.00;99.90
20512;DHT22;10414;52.074;5.126;2023-04-19T06:33:16;15.80;99.90
20512;DHT22;10414;52.074;5.126;2023-04-19T06:35:43;16.70;99.80
20512;DHT22;10414;52.074;5.126;2023-04-19T06:38:10;15.90;99.90
20512;DHT22;10414;52.074;5.126;2023-04-19T06:40:36;16.60;99.90
20512;DHT22;10414;52.074;5.126;2023-04-19T06:43:03;16.60;99.90
20512;DHT22;10414;52.074;5.126;2023-04-19T06:45:30;15.60;99.90
20512;DHT22;10414;52.074;5.126;2023-04-19T06:47:57;15.10;99.90
20512;DHT22;10414;52.074;5.126;2023-04-19T06:50:25;15.60;99.90
20512;DHT22;10414;52.074;5.126;2023-04-19T06:52:53;16.30;99.50
20512;DHT22;10414;52.074;5.126;2023-04-19T06:55:20;17.60;97.40
20512;DHT22;10414;52.074;5.126;2023-04-19T06:57:47;17.90;96.60
20512;DHT22;10414;52.074;5.126;2023-04-19T07:00:14;18.10;95.30
20512;DHT22;10414;52.074;5.126;2023-04-19T07:02:41;18.60;94.30
20512;DHT22;10414;52.074;5.126;2023-04-19T07:05:08;17.80;94.40
20512;DHT22;10414;52.074;5.126;2023-04-19T07:07:38;18.00;93.90
20512;DHT22;10414;52.074;5.126;2023-04-19T07:10:07;18.10;93.60
20512;DHT22;10414;52.074;5.126;2023-04-19T07:12:34;18.10;92.70
20512;DHT22;10414;52.074;5.126;2023-04-19T07:15:01;18.20;91.90
20512;DHT22;10414;52.074;5.126;2023-04-19T07:17:27;18.10;91.10
20512;DHT22;10414;52.074;5.126;2023-04-19T07:19:54;17.50;91.50
20512;DHT22;10414;52.074;5.126;2023-04-19T07:22:21;18.40;91.60
20512;DHT22;10414;52.074;5.126;2023-04-19T07:24:49;18.20;88.70
20512;DHT22;10414;52.074;5.126;2023-04-19T07:27:16;18.00;89.20
20512;DHT22;10414;52.074;5.126;2023-04-19T07:29:44;17.20;90.60
20512;DHT22;10414;52.074;5.126;2023-04-19T07:32:10;17.50;90.20
20512;DHT22;10414;52.074;5.126;2023-04-19T07:34:39;17.90;89.90
20512;DHT22;10414;52.074;5.126;2023-04-19T07:37:07;19.70;83.50
20512;DHT22;10414;52.074;5.126;2023-04-19T07:39:33;18.30;85.30
20512;DHT22;10414;52.074;5.126;2023-04-19T07:42:02;18.30;85.80
20512;DHT22;10414;52.074;5.126;2023-04-19T07:44:29;18.20;84.90
20512;DHT22;10414;52.074;5.126;2023-04-19T07:46:55;17.80;86.80
20512;DHT22;10414;52.074;5.126;2023-04-19T07:49:22;18.10;84.10
20512;DHT22;10414;52.074;5.126;2023-04-19T07:51:49;18.30;83.20
20512;DHT22;10414;52.074;5.126;2023-04-19T07:54:16;17.90;84.80
20512;DHT22;10414;52.074;5.126;2023-04-19T07:56:45;19.10;82.80
20512;DHT22;10414;52.074;5.126;2023-04-19T07:59:13;19.20;81.50
20512;DHT22;10414;52.074;5.126;2023-04-19T08:01:40;18.80;81.50
20512;DHT22;10414;52.074;5.126;2023-04-19T08:04:07;18.50;82.20
20512;DHT22;10414;52.074;5.126;2023-04-19T08:06:34;19.20;81.80
20512;DHT22;10414;52.074;5.126;2023-04-19T08:09:02;19.60;80.00
20512;DHT22;10414;52.074;5.126;2023-04-19T08:11:30;19.80;77.00
20512;DHT22;10414;52.074;5.126;2023-04-19T08:13:56;20.10;77.70
20512;DHT22;10414;52.074;5.126;2023-04-19T08:16:25;20.50;75.70
20512;DHT22;10414;52.074;5.126;2023-04-19T08:18:52;18.90;77.40
20512;DHT22;10414;52.074;5.126;2023-04-19T08:21:19;18.40;77.90
20512;DHT22;10414;52.074;5.126;2023-04-19T08:23:46;19.10;78.30
20512;DHT22;10414;52.074;5.126;2023-04-19T08:26:13;20.10;76.50
20512;DHT22;10414;52.074;5.126;2023-04-19T08:28:39;18.40;76.80
20512;DHT22;10414;52.074;5.126;2023-04-19T08:31:06;17.60;78.50
20512;DHT22;10414;52.074;5.126;2023-04-19T08:33:34;17.40;79.70
20512;DHT22;10414;52.074;5.126;2023-04-19T08:36:01;17.60;79.10
20512;DHT22;10414;52.074;5.126;2023-04-19T08:38:28;17.40;79.20
20512;DHT22;10414;52.074;5.126;2023-04-19T08:40:55;17.90;78.00
20512;DHT22;10414;52.074;5.126;2023-04-19T08:43:24;17.80;78.00
20512;DHT22;10414;52.074;5.126;2023-04-19T08:45:54;18.00;76.80
20512;DHT22;10414;52.074;5.126;2023-04-19T08:48:22;17.80;78.20
20512;DHT22;10414;52.074;5.126;2023-04-19T08:50:51;18.40;75.80
20512;DHT22;10414;52.074;5.126;2023-04-19T08:53:19;18.40;75.90
20512;DHT22;10414;52.074;5.126;2023-04-19T08:55:46;18.50;73.40
20512;DHT22;10414;52.074;5.126;2023-04-19T08:58:14;18.20;74.60
20512;DHT22;10414;52.074;5.126;2023-04-19T09:00:41;18.60;74.00
20512;DHT22;10414;52.074;5.126;2023-04-19T09:03:08;19.50;72.80
20512;DHT22;10414;52.074;5.126;2023-04-19T09:05:35;20.10;72.60
20512;DHT22;10414;52.074;5.126;2023-04-19T09:08:22;20.40;70.90
20512;DHT22;10414;52.074;5.126;2023-04-19T09:10:54;20.60;69.40
20512;DHT22;10414;52.074;5.126;2023-04-19T09:13:21;20.60;69.60
20512;DHT22;10414;52.074;5.126;2023-04-19T09:15:48;19.20;70.20
20512;DHT22;10414;52.074;5.126;2023-04-19T09:18:16;18.50;71.30
20512;DHT22;10414;52.074;5.126;2023-04-19T09:20:44;18.90;72.50
20512;DHT22;10414;52.074;5.126;2023-04-19T09:23:13;18.10;71.60
20512;DHT22;10414;52.074;5.126;2023-04-19T09:25:50;18.40;71.80
20512;DHT22;10414;52.074;5.126;2023-04-19T09:28:17;18.80;71.20
20512;DHT22;10414;52.074;5.126;2023-04-19T09:30:44;18.70;71.70
20512;DHT22;10414;52.074;5.126;2023-04-19T09:33:12;19.00;69.70
20512;DHT22;10414;52.074;5.126;2023-04-19T09:35:40;18.40;70.10
20512;DHT22;10414;52.074;5.126;2023-04-19T09:38:08;17.90;71.40
20512;DHT22;10414;52.074;5.126;2023-04-19T09:40:36;18.90;70.70
20512;DHT22;10414;52.074;5.126;2023-04-19T09:43:05;19.60;68.30
20512;DHT22;10414;52.074;5.126;2023-04-19T09:45:39;19.10;67.50
20512;DHT22;10414;52.074;5.126;2023-04-19T09:48:08;20.10;66.20
20512;DHT22;10414;52.074;5.126;2023-04-19T09:50:36;19.20;68.00
20512;DHT22;10414;52.074;5.126;2023-04-19T09:53:16;19.50;67.20
20512;DHT22;10414;52.074;5.126;2023-04-19T09:55:43;19.90;66.30
20512;DHT22;10414;52.074;5.126;2023-04-19T09:58:12;19.80;67.60
20512;DHT22;10414;52.074;5.126;2023-04-19T10:00:40;19.40;65.90
20512;DHT22;10414;52.074;5.126;2023-04-19T10:03:08;19.40;65.30
20512;DHT22;10414;52.074;5.126;2023-04-19T10:05:37;19.10;66.00
20512;DHT22;10414;52.074;5.126;2023-04-19T10:08:06;18.70;66.80
20512;DHT22;10414;52.074;5.126;2023-04-19T10:10:33;18.20;67.90
20512;DHT22;10414;52.074;5.126;2023-04-19T10:13:02;18.00;68.10
20512;DHT22;10414;52.074;5.126;2023-04-19T10:15:31;18.90;68.10
20512;DHT22;10414;52.074;5.126;2023-04-19T10:17:59;18.90;66.70
20512;DHT22;10414;52.074;5.126;2023-04-19T10:20:32;18.00;69.10
20512;DHT22;10414;52.074;5.126;2023-04-19T10:23:06;18.50;69.40
20512;DHT22;10414;52.074;5.126;2023-04-19T10:25:36;18.40;68.10
20512;DHT22;10414;52.074;5.126;2023-04-19T10:28:03;17.80;68.80
20512;DHT22;10414;52.074;5.126;2023-04-19T10:30:33;17.60;70.00
20512;DHT22;10414;52.074;5.126;2023-04-19T10:33:00;17.60;69.90
20512;DHT22;10414;52.074;5.126;2023-04-19T10:35:33;18.00;70.50
20512;DHT22;10414;52.074;5.126;2023-04-19T10:38:04;18.90;67.90
20512;DHT22;10414;52.074;5.126;2023-04-19T10:40:53;19.20;67.50
20512;DHT22;10414;52.074;5.126;2023-04-19T10:43:21;19.30;67.10
20512;DHT22;10414;52.074;5.126;2023-04-19T10:45:49;18.50;68.80
20512;DHT22;10414;52.074;5.126;2023-04-19T10:48:33;19.00;68.50
20512;DHT22;10414;52.074;5.126;2023-04-19T10:51:03;18.90;66.90
20512;DHT22;10414;52.074;5.126;2023-04-19T10:53:51;18.40;68.30
20512;DHT22;10414;52.074;5.126;2023-04-19T10:56:20;18.20;69.60
20512;DHT22;10414;52.074;5.126;2023-04-19T10:59:15;18.10;69.40
20512;DHT22;10414;52.074;5.126;2023-04-19T11:01:51;18.80;67.90
20512;DHT22;10414;52.074;5.126;2023-04-19T11:04:20;18.70;68.50
20512;DHT22;10414;52.074;5.126;2023-04-19T11:07:08;18.50;68.20
20512;DHT22;10414;52.074;5.126;2023-04-19T11:09:37;17.90;68.50
20512;DHT22;10414;52.074;5.126;2023-04-19T11:12:05;17.30;69.00
20512;DHT22;10414;52.074;5.126;2023-04-19T11:14:35;17.50;68.60
20512;DHT22;10414;52.074;5.126;2023-04-19T11:17:13;17.90;70.40
20512;DHT22;10414;52.074;5.126;2023-04-19T11:19:42;17.90;68.80
20512;DHT22;10414;52.074;5.126;2023-04-19T11:22:10;17.70;68.80
20512;DHT22;10414;52.074;5.126;2023-04-19T11:24:37;17.80;68.80
20512;DHT22;10414;52.074;5.126;2023-04-19T11:27:07;17.40;69.70
20512;DHT22;10414;52.074;5.126;2023-04-19T11:29:34;17.30;69.30
20512;DHT22;10414;52.074;5.126;2023-04-19T11:32:01;17.20;67.70
20512;DHT22;10414;52.074;5.126;2023-04-19T11:34:34;17.00;68.10
20512;DHT22;10414;52.074;5.126;2023-04-19T11:37:01;17.00;68.20
20512;DHT22;10414;52.074;5.126;2023-04-19T11:39:28;16.80;69.70
20512;DHT22;10414;52.074;5.126;2023-04-19T11:41:55;17.10;68.60
20512;DHT22;10414;52.074;5.126;2023-04-19T11:44:22;17.20;67.50
20512;DHT22;10414;52.074;5.126;2023-04-19T11:46:59;17.20;66.70
20512;DHT22;10414;52.074;5.126;2023-04-19T11:49:27;16.80;68.60
20512;DHT22;10414;52.074;5.126;2023-04-19T11:52:02;16.70;67.10
20512;DHT22;10414;52.074;5.126;2023-04-19T11:54:31;16.60;67.40
20512;DHT22;10414;52.074;5.126;2023-04-19T11:57:02;16.80;67.80
20512;DHT22;10414;52.074;5.126;2023-04-19T11:59:30;16.30;68.60
20512;DHT22;10414;52.074;5.126;2023-04-19T12:02:04;15.70;69.70
20512;DHT22;10414;52.074;5.126;2023-04-19T12:04:31;15.50;70.50
20512;DHT22;10414;52.074;5.126;2023-04-19T12:07:01;15.70;70.50
20512;DHT22;10414;52.074;5.126;2023-04-19T12:09:28;15.60;69.90
20512;DHT22;10414;52.074;5.126;2023-04-19T12:11:55;15.70;71.90
20512;DHT22;10414;52.074;5.126;2023-04-19T12:14:23;15.70;71.00
20512;DHT22;10414;52.074;5.126;2023-04-19T12:17:08;15.50;70.60
20512;DHT22;10414;52.074;5.126;2023-04-19T12:19:36;15.50;69.80
20512;DHT22;10414;52.074;5.126;2023-04-19T12:22:12;15.40;69.50
20512;DHT22;10414;52.074;5.126;2023-04-19T12:24:40;15.40;67.20
20512;DHT22;10414;52.074;5.126;2023-04-19T12:27:07;15.10;67.10
20512;DHT22;10414;52.074;5.126;2023-04-19T12:29:34;15.10;67.20
20512;DHT22;10414;52.074;5.126;2023-04-19T12:32:01;15.00;68.00
20512;DHT22;10414;52.074;5.126;2023-04-19T12:34:28;15.10;66.90
20512;DHT22;10414;52.074;5.126;2023-04-19T12:36:55;15.20;67.60
20512;DHT22;10414;52.074;5.126;2023-04-19T12:39:24;15.50;66.80
20512;DHT22;10414;52.074;5.126;2023-04-19T12:41:51;15.60;68.40
20512;DHT22;10414;52.074;5.126;2023-04-19T12:44:17;15.60;66.80
20512;DHT22;10414;52.074;5.126;2023-04-19T12:46:45;15.40;64.40
20512;DHT22;10414;52.074;5.126;2023-04-19T12:49:11;15.20;65.30
20512;DHT22;10414;52.074;5.126;2023-04-19T12:51:38;15.30;65.50
20512;DHT22;10414;52.074;5.126;2023-04-19T12:54:07;15.20;65.70
20512;DHT22;10414;52.074;5.126;2023-04-19T12:56:35;15.20;65.80
20512;DHT22;10414;52.074;5.126;2023-04-19T12:59:02;15.10;66.60
20512;DHT22;10414;52.074;5.126;2023-04-19T13:01:30;15.30;66.80
20512;DHT22;10414;52.074;5.126;2023-04-19T13:03:57;15.30;66.90
20512;DHT22;10414;52.074;5.126;2023-04-19T13:06:24;15.50;67.50
20512;DHT22;10414;52.074;5.126;2023-04-19T13:08:52;15.50;67.10
20512;DHT22;10414;52.074;5.126;2023-04-19T13:11:19;15.50;67.00
20512;DHT22;10414;52.074;5.126;2023-04-19T13:13:49;15.50;67.00
20512;DHT22;10414;52.074;5.126;2023-04-19T13:16:17;15.50;67.20
20512;DHT22;10414;52.074;5.126;2023-04-19T13:18:44;15.50;67.00
20512;DHT22;10414;52.074;5.126;2023-04-19T13:21:11;15.20;65.70
20512;DHT22;10414;52.074;5.126;2023-04-19T13:23:38;15.20;67.20
20512;DHT22;10414;52.074;5.126;2023-04-19T13:26:05;15.60;68.20
20512;DHT22;10414;52.074;5.126;2023-04-19T13:28:32;15.40;65.90
20512;DHT22;10414;52.074;5.126;2023-04-19T13:31:02;15.20;65.90
20512;DHT22;10414;52.074;5.126;2023-04-19T13:33:29;15.20;67.00
20512;DHT22;10414;52.074;5.126;2023-04-19T13:35:56;15.10;66.70
20512;DHT22;10414;52.074;5.126;2023-04-19T13:38:23;15.20;67.10
20512;DHT22;10414;52.074;5.126;2023-04-19T13:40:50;15.20;67.70
20512;DHT22;10414;52.074;5.126;2023-04-19T13:43:17;15.20;67.80
20512;DHT22;10414;52.074;5.126;2023-04-19T13:45:44;15.40;70.30
20512;DHT22;10414;52.074;5.126;2023-04-19T13:48:12;15.60;70.40
20512;DHT22;10414;52.074;5.126;2023-04-19T13:50:39;15.80;72.40
20512;DHT22;10414;52.074;5.126;2023-04-19T13:53:06;15.60;72.10
20512;DHT22;10414;52.074;5.126;2023-04-19T13:55:32;15.40;72.40
20512;DHT22;10414;52.074;5.126;2023-04-19T13:57:59;15.20;72.30
20512;DHT22;10414;52.074;5.126;2023-04-19T14:00:26;15.30;73.30
20512;DHT22;10414;52.074;5.126;2023-04-19T14:02:53;15.40;72.50
20512;DHT22;10414;52.074;5.126;2023-04-19T14:05:22;15.50;72.90
20512;DHT22;10414;52.074;5.126;2023-04-19T14:07:49;15.30;72.10
20512;DHT22;10414;52.074;5.126;2023-04-19T14:10:17;15.20;73.10
20512;DHT22;10414;52.074;5.126;2023-04-19T14:12:44;15.30;72.70
20512;DHT22;10414;52.074;5.126;2023-04-19T14:15:11;15.40;72.20
20512;DHT22;10414;52.074;5.126;2023-04-19T14:17:38;15.40;72.10
20512;DHT22;10414;52.074;5.126;2023-04-19T14:20:06;15.40;72.00
20512;DHT22;10414;52.074;5.126;2023-04-19T14:22:34;15.40;71.40
20512;DHT22;10414;52.074;5.126;2023-04-19T14:25:01;15.30;71.60
20512;DHT22;10414;52.074;5.126;2023-04-19T14:27:28;15.40;71.00
20512;DHT22;10414;52.074;5.126;2023-04-19T14:29:55;15.50;71.80
20512;DHT22;10414;52.074;5.126;2023-04-19T14:32:22;15.30;70.50
20512;DHT22;10414;52.074;5.126;2023-04-19T14:34:49;15.20;70.50
20512;DHT22;10414;52.074;5.126;2023-04-19T14:37:16;15.10;71.00
20512;DHT22;10414;52.074;5.126;2023-04-19T14:39:45;15.30;72.00
20512;DHT22;10414;52.074;5.126;2023-04-19T14:42:12;15.60;70.80
20512;DHT22;10414;52.074;5.126;2023-04-19T14:44:39;15.50;70.70
20512;DHT22;10414;52.074;5.126;2023-04-19T14:47:06;15.50;70.80
20512;DHT22;10414;52.074;5.126;2023-04-19T14:49:33;15.50;70.80
20512;DHT22;10414;52.074;5.126;2023-04-19T14:52:00;15.40;70.10
20512;DHT22;10414;52.074;5.126;2023-04-19T14:54:28;15.30;70.90
20512;DHT22;10414;52.074;5.126;2023-04-19T14:56:56;15.40;71.70
20512;DHT22;10414;52.074;5.126;2023-04-19T14:59:23;15.50;71.10
20512;DHT22;10414;52.074;5.126;2023-04-19T15:01:50;15.40;71.20
20512;DHT22;10414;52.074;5.126;2023-04-19T15:04:17;15.40;71.70
20512;DHT22;10414;52.074;5.126;2023-04-19T15:06:44;15.50;72.20
20512;DHT22;10414;52.074;5.126;2023-04-19T15:09:11;15.50;71.60
20512;DHT22;10414;52.074;5.126;2023-04-19T15:11:38;15.50;70.80
20512;DHT22;10414;52.074;5.126;2023-04-19T15:14:06;15.40;71.10
20512;DHT22;10414;52.074;5.126;2023-04-19T15:16:33;15.20;72.50
20512;DHT22;10414;52.074;5.126;2023-04-19T15:19:00;15.30;73.80
20512;DHT22;10414;52.074;5.126;2023-04-19T15:21:27;15.30;73.60
20512;DHT22;10414;52.074;5.126;2023-04-19T15:23:54;15.40;73.90
20512;DHT22;10414;52.074;5.126;2023-04-19T15:26:21;15.30;73.90
20512;DHT22;10414;52.074;5.126;2023-04-19T15:28:48;15.30;74.80
20512;DHT22;10414;52.074;5.126;2023-04-19T15:31:17;15.30;75.50
20512;DHT22;10414;52.074;5.126;2023-04-19T15:33:43;15.30;76.50
20512;DHT22;10414;52.074;5.126;2023-04-19T15:36:11;15.30;76.20
20512;DHT22;10414;52.074;5.126;2023-04-19T15:38:38;15.30;75.30
20512;DHT22;10414;52.074;5.126;2023-04-19T15:41:05;15.20;76.90
20512;DHT22;10414;52.074;5.126;2023-04-19T15:43:32;15.10;77.70